Marshall Ford, Texas
Current Conditions -  °F | °C
As of 12:51 PM on Friday 24 Oct 2014 (Local Time) from KATT Reporting Station
Clear Clear  
Wind Chill: 81°   Ceiling: Unl
Heat Index: 82°   Visibility: 10mi
Dew Point: 61°   Wind: 3mph
Humidity: 50%   Direction: NA
Pressure: 30.18"   Gusts: NA
Location:  30.3745°N, 97.8933°W
Report Text: KATT 241751Z AUTO VRB03KT 10SM CLR 27/16 A3018 RMK AO2 SLP208 T02720161 10272 20156 58007
Loading
Personal Weather Stations






























Interactive Weather Map
Tropical Storm Tracking
New forecast layout! Learn more

10-Day Weather Forecast

Advertisements
Track Severe Weather on mobile